createdAt,value
2018-02-03T00:02:10.506Z,5.70
2018-02-03T00:04:38.103Z,5.97
2018-02-03T00:07:05.735Z,6.43
2018-02-03T00:09:33.335Z,5.65
2018-02-03T00:12:00.944Z,5.62
2018-02-03T00:14:28.575Z,5.60
2018-02-03T00:16:56.228Z,4.72
2018-02-03T00:19:23.867Z,5.32
2018-02-03T00:21:51.489Z,5.70
2018-02-03T00:24:19.113Z,6.15
2018-02-03T00:26:46.707Z,4.95
2018-02-03T00:29:14.331Z,5.65
2018-02-03T00:31:41.935Z,6.07
2018-02-03T00:34:09.559Z,5.90
2018-02-03T00:36:37.211Z,4.72
2018-02-03T00:39:04.860Z,5.40
2018-02-03T00:41:32.482Z,5.95
2018-02-03T00:44:00.135Z,6.70
2018-02-03T00:46:27.775Z,6.35
2018-02-03T00:48:55.759Z,6.37
2018-02-03T00:51:23.387Z,6.10
2018-02-03T00:53:51.054Z,6.20
2018-02-03T00:56:18.652Z,7.03
2018-02-03T00:58:46.251Z,5.85
2018-02-03T01:01:13.893Z,6.18
2018-02-03T01:03:41.532Z,5.87
2018-02-03T01:06:09.201Z,6.57
2018-02-03T01:08:36.837Z,6.47
2018-02-03T01:11:04.440Z,5.72
2018-02-03T01:13:32.068Z,6.37
2018-02-03T01:15:59.696Z,6.65
2018-02-03T01:18:27.340Z,6.22
2018-02-03T01:20:54.931Z,6.37
2018-02-03T01:23:22.566Z,7.00
2018-02-03T01:25:50.215Z,6.37
2018-02-03T01:28:17.808Z,6.80
2018-02-03T01:30:45.480Z,6.50
2018-02-03T01:33:13.104Z,6.70
2018-02-03T01:35:40.721Z,6.70
2018-02-03T01:38:08.332Z,6.65
2018-02-03T01:40:35.929Z,5.82
2018-02-03T01:43:03.552Z,6.62
2018-02-03T01:45:31.197Z,6.72
2018-02-03T01:47:58.787Z,7.47
2018-02-03T01:50:26.412Z,6.65
2018-02-03T01:52:54.051Z,6.82
2018-02-03T01:55:21.664Z,6.80
2018-02-03T01:57:49.271Z,7.03
2018-02-03T02:00:16.879Z,6.82
2018-02-03T02:02:44.515Z,7.43
2018-02-03T02:05:12.144Z,6.87
2018-02-03T02:07:39.803Z,6.85
2018-02-03T02:10:07.421Z,7.75
2018-02-03T02:12:35.021Z,6.93
2018-02-03T02:15:02.672Z,8.27
2018-02-03T02:17:30.272Z,8.00
2018-02-03T02:19:57.903Z,7.57
2018-02-03T02:22:25.521Z,8.25
2018-02-03T02:24:53.147Z,7.43
2018-02-03T02:27:20.775Z,6.78
2018-02-03T02:29:48.483Z,8.15
2018-02-03T02:32:16.087Z,8.20
2018-02-03T02:34:43.760Z,8.07
2018-02-03T02:37:11.372Z,9.05
2018-02-03T02:39:38.973Z,9.13
2018-02-03T02:42:06.578Z,8.60
2018-02-03T02:44:34.239Z,9.27
2018-02-03T02:47:01.869Z,9.20
2018-02-03T02:49:29.513Z,9.10
2018-02-03T02:51:57.227Z,8.75
2018-02-03T02:54:24.863Z,8.93
2018-02-03T02:56:52.492Z,9.45
2018-02-03T02:59:20.092Z,9.18
2018-02-03T03:01:47.732Z,9.75
2018-02-03T03:04:15.361Z,9.80
2018-02-03T03:06:42.976Z,10.45
2018-02-03T03:09:10.611Z,9.82
2018-02-03T03:11:38.230Z,9.27
2018-02-03T03:14:05.865Z,9.60
2018-02-03T03:16:33.515Z,9.70
2018-02-03T03:19:01.196Z,10.48
2018-02-03T03:21:28.865Z,10.57
2018-02-03T03:23:56.512Z,10.10
2018-02-03T03:26:24.120Z,9.90
2018-02-03T03:28:51.761Z,11.02
2018-02-03T03:31:19.401Z,11.88
2018-02-03T03:33:47.040Z,11.45
2018-02-03T03:36:14.676Z,11.55
2018-02-03T03:38:42.328Z,12.88
2018-02-03T03:41:09.971Z,13.77
2018-02-03T03:43:37.608Z,12.70
2018-02-03T03:46:05.255Z,12.73
2018-02-03T03:48:32.877Z,12.02
2018-02-03T03:51:00.512Z,11.70
2018-02-03T03:53:28.136Z,11.98
2018-02-03T03:55:55.775Z,11.50
2018-02-03T03:58:23.432Z,12.68
2018-02-03T04:00:51.068Z,11.15
2018-02-03T04:03:18.699Z,11.80
2018-02-03T04:05:46.334Z,11.12
2018-02-03T04:08:13.988Z,12.20
2018-02-03T04:10:41.599Z,11.02
2018-02-03T04:13:09.248Z,11.20
2018-02-03T04:15:36.895Z,11.25
2018-02-03T04:18:04.523Z,11.73
2018-02-03T04:20:32.175Z,12.48
2018-02-03T04:22:59.811Z,10.90
2018-02-03T04:25:27.508Z,11.70
2018-02-03T04:27:55.140Z,11.57
2018-02-03T04:30:22.808Z,12.45
2018-02-03T04:32:50.447Z,11.68
2018-02-03T04:35:18.116Z,12.02
2018-02-03T04:37:45.757Z,11.60
2018-02-03T04:40:13.361Z,12.37
2018-02-03T04:42:41.027Z,12.50
2018-02-03T04:45:08.680Z,11.25
2018-02-03T04:47:36.336Z,11.57
2018-02-03T04:50:04.043Z,13.05
2018-02-03T04:52:31.644Z,11.15
2018-02-03T04:54:59.320Z,12.52
2018-02-03T04:57:26.956Z,11.63
2018-02-03T04:59:54.600Z,12.88
2018-02-03T05:02:22.236Z,13.30
2018-02-03T05:04:49.835Z,13.57
2018-02-03T05:07:17.500Z,13.60
2018-02-03T05:09:45.123Z,13.50
2018-02-03T05:12:12.799Z,14.15
2018-02-03T05:14:40.438Z,12.63
2018-02-03T05:17:08.090Z,11.45
2018-02-03T05:19:35.724Z,12.23
2018-02-03T05:22:03.340Z,11.20
2018-02-03T05:24:31.032Z,10.57
2018-02-03T05:26:58.667Z,10.35
2018-02-03T05:29:26.295Z,10.30
2018-02-03T05:31:53.956Z,10.70
2018-02-03T05:34:21.630Z,11.38
2018-02-03T05:36:49.272Z,15.02
2018-02-03T05:39:16.955Z,20.48
2018-02-03T05:41:44.599Z,12.20
2018-02-03T05:44:12.252Z,20.80
2018-02-03T05:46:39.951Z,19.65
2018-02-03T05:49:07.648Z,13.07
2018-02-03T05:51:35.300Z,12.30
2018-02-03T05:54:02.935Z,14.07
2018-02-03T05:56:30.567Z,13.57
2018-02-03T05:58:58.220Z,12.93
2018-02-03T06:01:25.859Z,13.32
2018-02-03T06:03:53.488Z,14.60
2018-02-03T06:06:21.100Z,15.25
2018-02-03T06:08:48.697Z,13.80
2018-02-03T06:11:16.307Z,14.05
2018-02-03T06:13:43.943Z,14.32
2018-02-03T06:16:11.591Z,14.82
2018-02-03T06:18:39.216Z,15.73
2018-02-03T06:21:06.867Z,15.65
2018-02-03T06:23:34.513Z,15.27
2018-02-03T06:26:02.171Z,17.23
2018-02-03T06:28:29.767Z,15.45
2018-02-03T06:30:57.406Z,17.80
2018-02-03T06:33:25.037Z,27.87
2018-02-03T06:35:52.683Z,19.90
2018-02-03T06:38:20.315Z,19.48
2018-02-03T06:40:47.940Z,20.20
2018-02-03T06:43:15.583Z,26.05
2018-02-03T06:45:43.192Z,23.30
2018-02-03T06:48:10.792Z,20.80
2018-02-03T06:50:38.444Z,22.67
2018-02-03T06:53:06.100Z,21.92
2018-02-03T06:55:33.745Z,26.27
2018-02-03T06:58:01.387Z,19.05
2018-02-03T07:00:29.027Z,16.15
2018-02-03T07:02:56.707Z,11.48
2018-02-03T07:05:24.432Z,8.50
2018-02-03T07:07:53.407Z,9.35
2018-02-03T07:10:31.705Z,8.43
2018-02-03T07:12:59.723Z,6.93
2018-02-03T07:15:29.881Z,6.57
2018-02-03T07:24:22.481Z,6.80
2018-02-03T07:26:59.387Z,5.80
2018-02-03T07:32:53.709Z,4.10
2018-02-03T07:35:24.440Z,3.87
2018-02-03T07:37:52.529Z,3.55
2018-02-03T07:40:25.387Z,3.15
2018-02-03T07:42:57.742Z,4.15
2018-02-03T07:45:26.220Z,4.30
2018-02-03T07:47:53.938Z,4.90
2018-02-03T07:50:21.798Z,5.20
2018-02-03T07:52:49.468Z,5.90
2018-02-03T07:55:17.101Z,4.25
2018-02-03T07:57:44.770Z,3.83
2018-02-03T08:00:12.451Z,5.50
2018-02-03T08:02:40.130Z,4.25
2018-02-03T08:05:07.878Z,4.12
2018-02-03T08:07:35.635Z,4.30
2018-02-03T08:10:03.429Z,4.37
2018-02-03T08:12:31.123Z,4.70
2018-02-03T08:14:58.776Z,4.85
2018-02-03T08:17:26.412Z,5.57
2018-02-03T08:19:54.004Z,5.47
2018-02-03T08:22:23.697Z,5.60
2018-02-03T08:24:51.307Z,5.78
2018-02-03T08:27:18.936Z,6.40
2018-02-03T08:29:46.571Z,5.57
2018-02-03T08:32:14.227Z,6.68
2018-02-03T08:34:41.860Z,7.12
2018-02-03T08:37:09.462Z,7.55
2018-02-03T08:39:37.104Z,8.27
2018-02-03T08:42:04.780Z,7.97
2018-02-03T08:44:32.488Z,8.10
2018-02-03T08:47:00.110Z,7.80
2018-02-03T08:49:27.740Z,7.40
2018-02-03T08:51:55.335Z,8.25
2018-02-03T08:54:22.983Z,9.57
2018-02-03T08:56:50.637Z,8.65
2018-02-03T08:59:18.243Z,9.70
2018-02-03T09:01:45.888Z,9.82
2018-02-03T09:04:13.495Z,13.38
2018-02-03T09:06:41.910Z,11.73
2018-02-03T09:09:09.496Z,8.80
2018-02-03T09:11:37.145Z,9.10
2018-02-03T09:14:04.871Z,9.25
2018-02-03T09:16:32.480Z,8.80
2018-02-03T09:19:00.152Z,9.02
2018-02-03T09:21:27.765Z,7.60
2018-02-03T09:23:55.413Z,8.13
2018-02-03T09:26:24.012Z,8.55
2018-02-03T09:28:51.644Z,7.18
2018-02-03T09:31:19.279Z,7.85
2018-02-03T09:33:46.871Z,6.53
2018-02-03T09:36:14.476Z,7.78
2018-02-03T09:38:42.099Z,5.80
2018-02-03T09:41:09.701Z,7.45
2018-02-03T09:43:37.311Z,7.00
2018-02-03T09:46:04.956Z,6.25
2018-02-03T09:48:32.555Z,6.65
2018-02-03T09:51:00.143Z,6.60
2018-02-03T09:53:27.836Z,6.35
2018-02-03T09:55:55.456Z,6.37
2018-02-03T09:58:23.112Z,7.10
2018-02-03T10:00:50.752Z,8.25
2018-02-03T10:03:18.356Z,8.10
2018-02-03T10:05:45.957Z,7.47
2018-02-03T10:08:14.340Z,10.18
2018-02-03T10:10:41.992Z,9.85
2018-02-03T10:13:09.643Z,13.40
2018-02-03T10:15:37.288Z,9.98
2018-02-03T10:18:04.895Z,10.45
2018-02-03T10:20:32.503Z,8.63
2018-02-03T10:23:00.104Z,13.23
2018-02-03T10:25:27.720Z,14.07
2018-02-03T10:27:55.316Z,9.05
2018-02-03T10:30:22.920Z,7.25
2018-02-03T10:32:50.532Z,6.80
2018-02-03T10:35:18.160Z,6.72
2018-02-03T10:37:45.763Z,5.80
2018-02-03T10:40:13.400Z,6.07
2018-02-03T10:42:41.007Z,7.20
2018-02-03T10:45:08.643Z,6.65
2018-02-03T10:47:37.029Z,6.87
2018-02-03T10:50:04.643Z,7.82
2018-02-03T10:52:32.240Z,6.97
2018-02-03T10:54:59.844Z,7.30
2018-02-03T10:57:27.439Z,6.93
2018-02-03T10:59:55.036Z,7.20
2018-02-03T11:02:22.693Z,8.05
2018-02-03T11:04:50.309Z,6.20
2018-02-03T11:07:28.764Z,6.80
2018-02-03T11:09:57.389Z,8.57
2018-02-03T11:12:25.016Z,9.45
2018-02-03T11:14:52.936Z,7.95
2018-02-03T11:17:20.552Z,6.97
2018-02-03T11:19:52.148Z,7.30
2018-02-03T11:22:20.703Z,7.28
2018-02-03T11:24:49.288Z,7.82
2018-02-03T11:27:20.843Z,7.55
2018-02-03T11:29:52.712Z,7.20
2018-02-03T11:32:24.391Z,6.35
2018-02-03T11:34:53.776Z,6.03
2018-02-03T11:37:22.190Z,7.70
2018-02-03T11:39:53.524Z,6.68
2018-02-03T11:42:25.164Z,5.12
2018-02-03T11:44:57.018Z,5.80
2018-02-03T11:47:26.627Z,6.10
2018-02-03T11:50:05.111Z,6.15
2018-02-03T11:52:32.707Z,6.10
2018-02-03T11:55:01.314Z,6.87
2018-02-03T11:57:39.892Z,5.90
2018-02-03T12:00:18.525Z,5.68
2018-02-03T12:02:48.148Z,5.97
2018-02-03T12:05:30.576Z,5.65
2018-02-03T12:07:58.204Z,6.45
2018-02-03T12:10:25.872Z,7.12
2018-02-03T12:12:55.534Z,6.07
2018-02-03T12:15:23.198Z,7.22
2018-02-03T12:17:52.776Z,7.97
2018-02-03T12:20:25.959Z,6.78
2018-02-03T12:22:58.952Z,6.85
2018-02-03T12:25:26.568Z,6.20
2018-02-03T12:27:54.170Z,6.50
2018-02-03T12:30:22.780Z,7.20
2018-02-03T12:32:52.222Z,7.45
2018-02-03T12:35:37.928Z,7.28
2018-02-03T12:38:06.553Z,6.57
2018-02-03T12:40:34.916Z,7.97
2018-02-03T12:43:02.524Z,7.32
2018-02-03T12:45:30.195Z,7.85
2018-02-03T12:47:57.797Z,6.87
2018-02-03T12:50:25.410Z,7.85
2018-02-03T12:52:53.048Z,8.25
2018-02-03T12:55:20.663Z,8.15
2018-02-03T12:57:49.122Z,8.70
2018-02-03T13:00:16.720Z,7.75
2018-02-03T13:02:44.323Z,9.02
2018-02-03T13:05:11.953Z,9.15
2018-02-03T13:07:41.507Z,8.52
2018-02-03T13:10:09.111Z,7.65
2018-02-03T13:12:36.723Z,9.80
2018-02-03T13:15:04.386Z,9.63
2018-02-03T13:17:32.047Z,9.48
2018-02-03T13:19:59.652Z,10.15
2018-02-03T13:22:28.040Z,9.88
2018-02-03T13:24:56.458Z,9.80
2018-02-03T13:27:24.060Z,9.63
2018-02-03T13:29:51.701Z,10.35
2018-02-03T13:32:20.327Z,10.18
2018-02-03T13:34:47.936Z,9.32
2018-02-03T13:37:15.544Z,10.50
2018-02-03T13:39:43.175Z,10.07
2018-02-03T13:42:16.611Z,9.45
2018-02-03T13:44:44.225Z,9.90
2018-02-03T13:47:11.828Z,10.23
2018-02-03T13:49:41.469Z,11.60
2018-02-03T13:52:09.855Z,12.70
2018-02-03T13:54:38.215Z,13.90
2018-02-03T13:57:06.806Z,11.45
2018-02-03T13:59:34.435Z,14.13
2018-02-03T14:02:03.092Z,14.70
2018-02-03T14:04:30.751Z,13.38
2018-02-03T14:06:58.351Z,14.63
2018-02-03T14:09:25.970Z,12.15
2018-02-03T14:11:54.351Z,12.77
2018-02-03T14:14:21.985Z,9.88
2018-02-03T14:16:49.590Z,11.32
2018-02-03T14:19:17.954Z,10.07
2018-02-03T14:21:45.542Z,10.55
2018-02-03T14:24:19.538Z,10.30
2018-02-03T14:26:47.166Z,11.10
2018-02-03T14:29:33.615Z,10.27
2018-02-03T14:32:01.995Z,10.40
2018-02-03T14:34:32.303Z,10.13
2018-02-03T14:37:01.978Z,10.20
2018-02-03T14:39:29.627Z,10.45
2018-02-03T14:41:57.231Z,10.30
2018-02-03T14:44:24.855Z,8.55
2018-02-03T14:46:52.496Z,11.60
2018-02-03T14:49:20.113Z,11.27
2018-02-03T14:51:47.751Z,9.10
2018-02-03T14:54:15.343Z,11.35
2018-02-03T14:56:42.992Z,11.48
2018-02-03T14:59:10.588Z,11.40
2018-02-03T15:01:38.244Z,11.05
2018-02-03T15:04:05.844Z,9.07
2018-02-03T15:06:33.479Z,8.27
2018-02-03T15:09:01.130Z,8.45
2018-02-03T15:11:28.774Z,9.25
2018-02-03T15:13:56.435Z,9.35
2018-02-03T15:16:24.164Z,9.68
2018-02-03T15:18:51.786Z,10.30
2018-02-03T15:21:19.408Z,9.23
2018-02-03T15:23:47.791Z,9.10
2018-02-03T15:26:15.387Z,9.70
2018-02-03T15:28:42.976Z,9.05
2018-02-03T15:31:10.652Z,9.38
2018-02-03T15:33:39.354Z,8.60
2018-02-03T15:36:07.002Z,8.65
2018-02-03T15:38:34.603Z,9.05
2018-02-03T15:41:02.213Z,9.93
2018-02-03T15:43:29.824Z,9.02
2018-02-03T15:45:57.671Z,8.50
2018-02-03T15:48:25.339Z,9.07
2018-02-03T15:50:53.966Z,10.60
2018-02-03T15:53:21.583Z,9.32
2018-02-03T15:55:49.264Z,9.70
2018-02-03T15:58:16.915Z,10.18
2018-02-03T16:00:44.570Z,10.25
2018-02-03T16:03:12.315Z,10.38
2018-02-03T16:05:40.688Z,9.23
2018-02-03T16:08:08.348Z,10.40
2018-02-03T16:10:36.292Z,10.38
2018-02-03T16:13:03.921Z,9.25
2018-02-03T16:15:31.549Z,9.82
2018-02-03T16:17:59.217Z,8.93
2018-02-03T16:20:26.829Z,8.60
2018-02-03T16:22:54.464Z,9.82
2018-02-03T16:25:22.838Z,9.13
2018-02-03T16:27:50.530Z,10.25
2018-02-03T16:30:18.171Z,10.50
2018-02-03T16:32:45.796Z,9.07
2018-02-03T16:35:13.417Z,10.02
2018-02-03T16:37:41.059Z,11.23
2018-02-03T16:40:08.692Z,11.12
2018-02-03T16:42:36.334Z,11.00
2018-02-03T16:45:04.015Z,11.40
2018-02-03T16:47:31.662Z,11.48
2018-02-03T16:49:59.311Z,11.70
2018-02-03T16:52:26.920Z,10.13
2018-02-03T16:54:54.528Z,12.00
2018-02-03T16:57:22.175Z,12.20
2018-02-03T16:59:49.814Z,12.02
2018-02-03T17:02:17.440Z,13.38
2018-02-03T17:04:45.059Z,15.63
2018-02-03T17:07:12.715Z,17.30
2018-02-03T17:09:40.336Z,13.57
2018-02-03T17:12:07.942Z,14.90
2018-02-03T17:14:35.617Z,15.70
2018-02-03T17:17:03.265Z,16.58
2018-02-03T17:19:30.937Z,19.05
2018-02-03T17:21:58.633Z,16.17
2018-02-03T17:24:27.229Z,14.52
2018-02-03T17:26:55.866Z,13.77
2018-02-03T17:29:27.718Z,13.10
2018-02-03T17:31:55.401Z,12.77
2018-02-03T17:34:23.127Z,11.15
2018-02-03T17:37:01.339Z,12.55
2018-02-03T17:39:28.980Z,12.68
2018-02-03T17:41:56.647Z,11.93
2018-02-03T17:44:24.338Z,11.63
2018-02-03T17:47:10.783Z,11.55
2018-02-03T17:49:38.500Z,13.00
2018-02-03T17:52:06.867Z,12.60
2018-02-03T17:54:34.559Z,12.57
2018-02-03T17:57:07.873Z,13.98
2018-02-03T17:59:35.504Z,14.57
2018-02-03T18:02:03.978Z,14.45
2018-02-03T18:04:31.622Z,14.55
2018-02-03T18:07:05.217Z,14.45
2018-02-03T18:09:32.845Z,14.52
2018-02-03T18:12:04.996Z,13.73
2018-02-03T18:14:43.500Z,13.60
2018-02-03T18:17:12.914Z,13.62
2018-02-03T18:19:43.287Z,14.02
2018-02-03T18:22:10.902Z,13.90
2018-02-03T18:24:39.279Z,15.30
2018-02-03T18:27:08.900Z,10.07
2018-02-03T18:29:37.283Z,7.97
2018-02-03T18:32:05.671Z,7.25
2018-02-03T18:34:33.322Z,6.40
2018-02-03T18:37:00.975Z,6.05
2018-02-03T18:39:32.948Z,6.12
2018-02-03T18:42:01.515Z,5.60
2018-02-03T18:44:29.114Z,5.45
2018-02-03T18:46:57.475Z,5.70
2018-02-03T18:49:25.131Z,6.85
2018-02-03T18:52:09.234Z,16.92
2018-02-03T18:54:42.690Z,35.50
2018-02-03T18:57:14.453Z,46.28
2018-02-03T18:59:42.074Z,22.35
2018-02-03T19:02:09.662Z,10.32
2018-02-03T19:04:41.424Z,10.65
2018-02-03T19:07:09.035Z,8.55
2018-02-03T19:09:36.650Z,7.32
2018-02-03T19:12:04.251Z,7.43
2018-02-03T19:14:32.603Z,7.65
2018-02-03T19:17:00.262Z,7.85
2018-02-03T19:19:27.899Z,8.30
2018-02-03T19:21:55.532Z,6.47
2018-02-03T19:24:25.127Z,7.55
2018-02-03T19:26:52.797Z,7.72
2018-02-03T19:29:21.215Z,6.95
2018-02-03T19:31:48.891Z,8.05
2018-02-03T19:34:16.542Z,6.37
2018-02-03T19:36:44.144Z,6.65
2018-02-03T19:39:11.865Z,6.80
2018-02-03T19:41:39.493Z,5.60
2018-02-03T19:44:07.133Z,5.55
2018-02-03T19:46:34.771Z,6.10
2018-02-03T19:49:02.481Z,12.00
2018-02-03T19:51:30.124Z,11.55
2018-02-03T19:53:57.768Z,10.43
2018-02-03T19:56:25.387Z,6.20
2018-02-03T19:58:53.059Z,5.45
2018-02-03T20:01:20.673Z,9.95
2018-02-03T20:03:48.304Z,9.80
2018-02-03T20:06:15.929Z,8.38
2018-02-03T20:08:43.538Z,6.53
2018-02-03T20:11:11.968Z,4.95
2018-02-03T20:13:39.599Z,6.87
2018-02-03T20:16:08.046Z,5.22
2018-02-03T20:18:35.632Z,5.45
2018-02-03T20:21:03.262Z,5.18
2018-02-03T20:23:30.904Z,5.30
2018-02-03T20:26:09.054Z,5.82
2018-02-03T20:28:36.668Z,5.50
2018-02-03T20:31:04.313Z,6.47
2018-02-03T20:33:32.775Z,5.50
2018-02-03T20:36:00.431Z,5.47
2018-02-03T20:38:28.103Z,5.50
2018-02-03T20:40:55.783Z,5.72
2018-02-03T20:43:23.476Z,5.20
2018-02-03T20:45:51.148Z,6.30
2018-02-03T20:48:18.839Z,5.85
2018-02-03T20:50:46.540Z,6.07
2018-02-03T20:53:14.219Z,5.82
2018-02-03T20:55:41.826Z,5.60
2018-02-03T20:58:09.458Z,6.35
2018-02-03T21:00:37.063Z,6.22
2018-02-03T21:03:04.781Z,6.80
2018-02-03T21:05:32.457Z,6.12
2018-02-03T21:08:00.844Z,7.15
2018-02-03T21:10:28.519Z,6.65
2018-02-03T21:12:57.115Z,6.20
2018-02-03T21:15:24.733Z,6.78
2018-02-03T21:17:52.328Z,6.75
2018-02-03T21:20:20.738Z,6.50
2018-02-03T21:22:48.363Z,6.72
2018-02-03T21:25:15.993Z,6.47
2018-02-03T21:27:43.623Z,6.90
2018-02-03T21:30:12.067Z,6.85
2018-02-03T21:32:39.747Z,7.37
2018-02-03T21:35:07.391Z,7.00
2018-02-03T21:37:36.948Z,7.20
2018-02-03T21:40:04.540Z,6.85
2018-02-03T21:42:32.212Z,7.60
2018-02-03T21:44:59.840Z,7.15
2018-02-03T21:47:27.504Z,8.45
2018-02-03T21:49:55.188Z,9.43
2018-02-03T21:52:22.787Z,8.18
2018-02-03T21:54:50.384Z,8.23
2018-02-03T21:57:17.989Z,7.00
2018-02-03T21:59:45.607Z,7.85
2018-02-03T22:02:13.299Z,6.90
2018-02-03T22:04:41.017Z,7.62
2018-02-03T22:07:08.640Z,7.12
2018-02-03T22:09:36.253Z,7.40
2018-02-03T22:12:03.916Z,8.00
2018-02-03T22:14:31.512Z,7.60
2018-02-03T22:16:59.121Z,7.35
2018-02-03T22:19:26.728Z,9.07
2018-02-03T22:21:54.327Z,7.65
2018-02-03T22:24:21.936Z,8.40
2018-02-03T22:26:49.544Z,7.57
2018-02-03T22:29:17.146Z,7.62
2018-02-03T22:31:44.756Z,8.13
2018-02-03T22:34:12.360Z,7.12
2018-02-03T22:36:39.968Z,6.78
2018-02-03T22:39:07.567Z,7.18
2018-02-03T22:41:35.193Z,6.68
2018-02-03T22:44:02.797Z,7.30
2018-02-03T22:46:30.407Z,7.00
2018-02-03T22:48:58.018Z,7.00
2018-02-03T22:51:25.687Z,6.93
2018-02-03T22:53:53.287Z,7.53
2018-02-03T22:56:20.904Z,8.52
2018-02-03T22:58:48.511Z,8.35
2018-02-03T23:01:17.044Z,8.80
2018-02-03T23:03:44.704Z,8.30
2018-02-03T23:06:12.308Z,8.85
2018-02-03T23:08:39.963Z,7.45
2018-02-03T23:11:07.571Z,8.75
2018-02-03T23:13:35.232Z,9.18
2018-02-03T23:16:02.836Z,9.00
2018-02-03T23:18:30.429Z,7.55
2018-02-03T23:20:58.043Z,7.22
2018-02-03T23:23:25.644Z,8.15
2018-02-03T23:25:53.267Z,8.27
2018-02-03T23:28:20.908Z,7.40
2018-02-03T23:30:48.565Z,7.90
2018-02-03T23:33:19.499Z,7.53
2018-02-03T23:35:56.474Z,7.75
2018-02-03T23:38:24.203Z,8.35
2018-02-03T23:40:51.894Z,7.70
2018-02-03T23:43:19.519Z,7.60
2018-02-03T23:45:47.151Z,8.73
2018-02-03T23:48:14.762Z,7.65
2018-02-03T23:50:42.429Z,7.20
2018-02-03T23:53:10.050Z,8.18
2018-02-03T23:55:37.670Z,7.45
2018-02-03T23:58:05.337Z,8.35
